createdAt,value
2022-09-03T00:01:04.785Z,10.80
2022-09-03T00:03:32.055Z,10.73
2022-09-03T00:05:59.361Z,11.37
2022-09-03T00:08:26.633Z,11.75
2022-09-03T00:10:53.913Z,10.59
2022-09-03T00:13:21.249Z,10.45
2022-09-03T00:15:48.604Z,11.62
2022-09-03T00:18:15.941Z,11.51
2022-09-03T00:20:43.258Z,12.47
2022-09-03T00:23:10.551Z,12.31
2022-09-03T00:25:37.830Z,11.80
2022-09-03T00:28:05.108Z,10.72
2022-09-03T00:30:32.405Z,5.30
2022-09-03T00:32:59.679Z,7.73
2022-09-03T00:35:26.997Z,11.41
2022-09-03T00:37:56.239Z,10.70
2022-09-03T00:40:23.517Z,10.41
2022-09-03T00:42:50.817Z,9.29
2022-09-03T00:45:18.089Z,8.46
2022-09-03T00:47:45.347Z,7.52
2022-09-03T00:50:12.634Z,8.22
2022-09-03T00:52:39.895Z,8.20
2022-09-03T00:55:07.221Z,8.18
2022-09-03T00:57:34.494Z,7.19
2022-09-03T01:00:01.781Z,7.67
2022-09-03T01:02:29.337Z,8.34
2022-09-03T01:04:56.673Z,8.21
2022-09-03T01:07:23.944Z,8.99
2022-09-03T01:09:51.318Z,9.38
2022-09-03T01:12:18.582Z,9.00
2022-09-03T01:14:45.853Z,7.82
2022-09-03T01:17:13.142Z,5.70
2022-09-03T01:19:40.417Z,3.96
2022-09-03T01:22:07.723Z,3.43
2022-09-03T01:24:35.014Z,3.71
2022-09-03T01:27:02.289Z,3.52
2022-09-03T01:29:29.586Z,2.91
2022-09-03T01:31:56.862Z,3.06
2022-09-03T01:34:24.129Z,2.50
2022-09-03T01:36:51.517Z,2.60
2022-09-03T01:39:18.835Z,2.74
2022-09-03T01:41:46.159Z,2.58
2022-09-03T01:44:13.445Z,2.43
2022-09-03T01:46:40.813Z,2.37
2022-09-03T01:49:08.161Z,2.29
2022-09-03T01:51:35.451Z,2.38
2022-09-03T01:54:02.735Z,2.31
2022-09-03T01:56:30.011Z,2.42
2022-09-03T01:58:57.312Z,2.52
2022-09-03T02:01:24.617Z,2.15
2022-09-03T02:03:51.957Z,2.37
2022-09-03T02:06:19.254Z,2.08
2022-09-03T02:08:46.519Z,1.95
2022-09-03T02:11:13.802Z,1.87
2022-09-03T02:13:41.189Z,1.87
2022-09-03T02:16:08.501Z,1.90
2022-09-03T02:18:35.807Z,1.90
2022-09-03T02:21:03.088Z,2.05
2022-09-03T02:23:30.357Z,2.19
2022-09-03T02:25:57.624Z,2.19
2022-09-03T02:28:25.083Z,2.18
2022-09-03T02:30:52.525Z,2.31
2022-09-03T02:33:19.856Z,2.03
2022-09-03T02:35:47.146Z,2.20
2022-09-03T02:38:14.415Z,2.01
2022-09-03T02:40:41.693Z,1.93
2022-09-03T02:43:09.081Z,1.87
2022-09-03T02:45:36.355Z,2.02
2022-09-03T02:48:03.620Z,2.24
2022-09-03T02:50:31.218Z,2.07
2022-09-03T02:52:58.480Z,2.49
2022-09-03T02:55:25.752Z,2.46
2022-09-03T02:57:53.048Z,2.78
2022-09-03T03:00:20.335Z,2.49
2022-09-03T03:02:47.656Z,2.60
2022-09-03T03:05:14.978Z,2.34
2022-09-03T03:07:42.243Z,2.55
2022-09-03T03:10:09.517Z,2.29
2022-09-03T03:12:36.903Z,2.41
2022-09-03T03:15:04.179Z,2.24
2022-09-03T03:17:31.465Z,2.33
2022-09-03T03:19:58.748Z,2.35
2022-09-03T03:22:26.025Z,2.32
2022-09-03T03:24:55.379Z,2.33
2022-09-03T03:27:22.658Z,2.27
2022-09-03T03:29:49.923Z,2.16
2022-09-03T03:32:17.233Z,2.16
2022-09-03T03:34:44.500Z,2.19
2022-09-03T03:37:11.759Z,2.01
2022-09-03T03:39:39.074Z,2.19
2022-09-03T03:42:06.401Z,2.05
2022-09-03T03:44:33.691Z,2.11
2022-09-03T03:47:00.963Z,2.24
2022-09-03T03:49:29.783Z,2.16
2022-09-03T03:51:57.056Z,1.99
2022-09-03T03:54:24.335Z,1.91
2022-09-03T03:56:55.780Z,2.10
2022-09-03T03:59:23.189Z,2.10
2022-09-03T04:01:50.468Z,2.12
2022-09-03T04:04:17.767Z,2.23
2022-09-03T04:06:45.032Z,2.28
2022-09-03T04:09:12.299Z,2.39
2022-09-03T04:11:39.685Z,2.39
2022-09-03T04:14:08.920Z,2.58
2022-09-03T04:16:36.290Z,2.55
2022-09-03T04:19:03.679Z,2.22
2022-09-03T04:21:30.955Z,2.46
2022-09-03T04:23:58.234Z,2.51
2022-09-03T04:26:25.538Z,2.55
2022-09-03T04:28:52.815Z,2.47
2022-09-03T04:31:20.095Z,2.47
2022-09-03T04:33:47.374Z,3.30
2022-09-03T04:36:14.757Z,3.81
2022-09-03T04:38:42.065Z,3.84
2022-09-03T04:41:09.335Z,3.71
2022-09-03T04:43:36.646Z,3.92
2022-09-03T04:46:03.969Z,4.12
2022-09-03T04:48:31.330Z,4.68
2022-09-03T04:50:58.627Z,5.16
2022-09-03T04:53:25.929Z,5.01
2022-09-03T04:55:53.229Z,5.07
2022-09-03T04:58:20.501Z,5.94
2022-09-03T05:00:48.976Z,5.62
2022-09-03T05:03:16.281Z,5.08
2022-09-03T05:05:43.563Z,4.85
2022-09-03T05:08:10.832Z,4.17
2022-09-03T05:10:38.125Z,3.74
2022-09-03T05:13:05.863Z,4.32
2022-09-03T05:15:33.134Z,4.66
2022-09-03T05:18:00.419Z,4.51
2022-09-03T05:20:27.986Z,4.44
2022-09-03T05:22:55.267Z,3.94
2022-09-03T05:25:22.554Z,4.33
2022-09-03T05:27:49.828Z,3.87
2022-09-03T05:30:17.122Z,3.77
2022-09-03T05:32:44.399Z,3.49
2022-09-03T05:35:11.671Z,3.46
2022-09-03T05:37:38.965Z,3.50
2022-09-03T05:40:06.236Z,3.31
2022-09-03T05:42:33.537Z,3.04
2022-09-03T05:45:00.813Z,3.03
2022-09-03T05:47:28.113Z,3.08
2022-09-03T05:49:55.390Z,3.02
2022-09-03T05:52:22.657Z,3.10
2022-09-03T05:54:49.961Z,3.35
2022-09-03T05:57:17.242Z,3.27
2022-09-03T05:59:44.512Z,3.28
2022-09-03T06:02:12.237Z,3.35
2022-09-03T06:04:39.631Z,3.36
2022-09-03T06:07:06.903Z,3.64
2022-09-03T06:09:34.196Z,3.63
2022-09-03T06:12:03.991Z,3.61
2022-09-03T06:14:31.952Z,3.47
2022-09-03T06:16:59.253Z,3.52
2022-09-03T06:19:26.601Z,3.46
2022-09-03T06:21:53.885Z,3.72
2022-09-03T06:24:21.148Z,3.70
2022-09-03T06:26:48.443Z,3.94
2022-09-03T06:29:15.714Z,3.96
2022-09-03T06:31:43.062Z,3.41
2022-09-03T06:34:10.403Z,3.60
2022-09-03T06:36:39.838Z,3.79
2022-09-03T06:39:07.116Z,3.67
2022-09-03T06:41:34.399Z,3.74
2022-09-03T06:44:01.674Z,4.04
2022-09-03T06:46:28.940Z,4.94
2022-09-03T06:48:56.231Z,4.11
2022-09-03T06:51:23.519Z,3.34
2022-09-03T06:53:50.784Z,3.15
2022-09-03T06:56:18.081Z,2.63
2022-09-03T06:58:45.341Z,2.54
2022-09-03T07:01:12.713Z,2.62
2022-09-03T07:03:40.082Z,2.42
2022-09-03T07:06:07.384Z,1.93
2022-09-03T07:08:34.661Z,1.64
2022-09-03T07:11:02.486Z,1.88
2022-09-03T07:13:29.785Z,2.23
2022-09-03T07:15:57.156Z,2.02
2022-09-03T07:18:24.551Z,1.74
2022-09-03T07:20:52.037Z,1.77
2022-09-03T07:23:19.300Z,1.59
2022-09-03T07:25:46.556Z,1.75
2022-09-03T07:28:13.837Z,1.72
2022-09-03T07:30:41.143Z,1.69
2022-09-03T07:33:08.431Z,1.88
2022-09-03T07:35:35.712Z,1.77
2022-09-03T07:38:03.007Z,2.16
2022-09-03T07:40:30.271Z,2.29
2022-09-03T07:42:57.557Z,2.19
2022-09-03T07:45:24.838Z,2.10
2022-09-03T07:47:52.123Z,2.19
2022-09-03T07:50:19.422Z,2.33
2022-09-03T07:52:46.714Z,2.40
2022-09-03T07:55:13.989Z,2.33
2022-09-03T07:57:41.272Z,2.34
2022-09-03T08:00:08.553Z,2.47
2022-09-03T08:02:35.839Z,2.68
2022-09-03T08:05:03.157Z,2.59
2022-09-03T08:07:30.463Z,2.45
2022-09-03T08:09:58.260Z,2.32
2022-09-03T08:12:25.551Z,2.07
2022-09-03T08:14:52.906Z,1.98
2022-09-03T08:17:20.181Z,1.78
2022-09-03T08:19:47.455Z,1.87
2022-09-03T08:22:14.768Z,1.83
2022-09-03T08:24:44.996Z,1.88
2022-09-03T08:27:12.305Z,1.90
2022-09-03T08:29:39.567Z,1.94
2022-09-03T08:32:06.835Z,2.00
2022-09-03T08:34:34.132Z,2.07
2022-09-03T08:37:01.402Z,2.06
2022-09-03T08:39:28.706Z,2.03
2022-09-03T08:41:56.043Z,2.04
2022-09-03T08:44:23.323Z,2.03
2022-09-03T08:46:50.635Z,2.02
2022-09-03T08:49:17.969Z,1.66
2022-09-03T08:51:45.250Z,1.80
2022-09-03T08:54:12.527Z,1.92
2022-09-03T08:56:39.903Z,1.99
2022-09-03T08:59:07.220Z,1.86
2022-09-03T09:01:34.539Z,1.76
2022-09-03T09:04:01.865Z,1.63
2022-09-03T09:06:29.163Z,1.51
2022-09-03T09:08:56.457Z,1.54
2022-09-03T09:11:23.724Z,1.82
2022-09-03T09:13:51.005Z,1.87
2022-09-03T09:16:18.326Z,2.01
2022-09-03T09:18:45.662Z,2.14
2022-09-03T09:21:14.206Z,2.04
2022-09-03T09:23:43.121Z,2.15
2022-09-03T09:26:10.415Z,1.88
2022-09-03T09:28:37.749Z,1.90
2022-09-03T09:31:05.173Z,1.81
2022-09-03T09:33:34.580Z,2.07
2022-09-03T09:36:02.768Z,1.89
2022-09-03T09:38:30.060Z,1.97
2022-09-03T09:40:57.349Z,2.05
2022-09-03T09:43:24.610Z,2.19
2022-09-03T09:45:51.905Z,2.07
2022-09-03T09:48:19.280Z,2.06
2022-09-03T09:50:46.579Z,2.31
2022-09-03T09:53:13.871Z,2.21
2022-09-03T09:55:41.140Z,2.39
2022-09-03T09:58:13.461Z,2.26
2022-09-03T10:00:41.685Z,2.35
2022-09-03T10:03:09.039Z,2.48
2022-09-03T10:05:36.422Z,2.34
2022-09-03T10:08:03.712Z,2.31
2022-09-03T10:10:30.985Z,2.81
2022-09-03T10:12:58.272Z,2.87
2022-09-03T10:15:25.557Z,2.86
2022-09-03T10:17:52.863Z,2.27
2022-09-03T10:20:20.137Z,2.19
2022-09-03T10:22:57.051Z,2.26
2022-09-03T10:25:24.802Z,2.31
2022-09-03T10:27:52.103Z,2.43
2022-09-03T10:30:19.377Z,2.35
2022-09-03T10:32:48.547Z,2.40
2022-09-03T10:35:15.991Z,2.57
2022-09-03T10:37:43.279Z,2.76
2022-09-03T10:40:10.631Z,3.07
2022-09-03T10:42:37.973Z,3.16
2022-09-03T10:45:05.265Z,3.01
2022-09-03T10:47:32.553Z,3.33
2022-09-03T10:49:59.816Z,3.57
2022-09-03T10:52:27.108Z,3.31
2022-09-03T10:54:54.388Z,3.38
2022-09-03T10:57:21.669Z,3.52
2022-09-03T10:59:50.365Z,3.93
2022-09-03T11:02:17.643Z,3.79
2022-09-03T11:04:44.979Z,4.32
2022-09-03T11:07:12.265Z,4.68
2022-09-03T11:09:39.546Z,4.87
2022-09-03T11:12:06.823Z,5.05
2022-09-03T11:14:34.083Z,5.03
2022-09-03T11:17:01.381Z,4.99
2022-09-03T11:19:28.644Z,5.59
2022-09-03T11:21:55.919Z,5.50
2022-09-03T11:24:23.222Z,6.08
2022-09-03T11:26:50.507Z,6.02
2022-09-03T11:29:18.352Z,5.73
2022-09-03T11:31:45.714Z,5.82
2022-09-03T11:34:13.010Z,5.73
2022-09-03T11:36:48.050Z,5.89
2022-09-03T11:39:15.497Z,6.05
2022-09-03T11:41:42.788Z,5.73
2022-09-03T11:44:10.081Z,5.76
2022-09-03T11:46:37.429Z,6.34
2022-09-03T11:49:04.772Z,6.54
2022-09-03T11:51:32.053Z,6.12
2022-09-03T11:53:59.364Z,6.52
2022-09-03T11:56:26.643Z,5.93
2022-09-03T11:58:53.913Z,6.52
2022-09-03T12:01:21.196Z,6.91
2022-09-03T12:03:48.469Z,7.60
2022-09-03T12:06:15.763Z,7.57
2022-09-03T12:08:43.048Z,7.93
2022-09-03T12:11:10.335Z,7.59
2022-09-03T12:13:37.609Z,7.16
2022-09-03T12:16:04.985Z,6.97
2022-09-03T12:18:32.335Z,6.54
2022-09-03T12:20:59.617Z,6.31
2022-09-03T12:23:26.907Z,6.35
2022-09-03T12:25:54.197Z,6.81
2022-09-03T12:28:21.466Z,6.51
2022-09-03T12:30:48.786Z,6.39
2022-09-03T12:33:16.178Z,6.61
2022-09-03T12:35:59.507Z,6.32
2022-09-03T12:38:27.211Z,6.19
2022-09-03T12:43:45.068Z,5.95
2022-09-03T12:46:15.137Z,6.16
2022-09-03T12:48:44.144Z,6.43
2022-09-03T12:53:58.740Z,6.96
2022-09-03T12:56:26.039Z,6.65
2022-09-03T12:58:53.293Z,7.03
2022-09-03T13:01:20.657Z,6.20
2022-09-03T13:03:48.068Z,5.88
2022-09-03T13:06:15.339Z,6.34
2022-09-03T13:08:42.620Z,6.65
2022-09-03T13:11:09.908Z,6.55
2022-09-03T13:13:37.186Z,5.94
2022-09-03T13:16:04.562Z,6.83
2022-09-03T13:18:31.869Z,6.54
2022-09-03T13:20:59.137Z,5.99
2022-09-03T13:23:26.395Z,5.89
2022-09-03T13:25:53.712Z,5.85
2022-09-03T13:28:20.987Z,5.21
2022-09-03T13:30:48.335Z,4.96
2022-09-03T13:33:15.683Z,5.55
2022-09-03T13:35:42.971Z,6.01
2022-09-03T13:38:10.241Z,5.26
2022-09-03T13:40:37.509Z,5.97
2022-09-03T13:43:04.795Z,5.41
2022-09-03T13:45:32.518Z,5.56
2022-09-03T13:47:59.832Z,5.09
2022-09-03T13:50:32.952Z,4.99
2022-09-03T13:53:00.232Z,4.81
2022-09-03T13:55:27.528Z,5.08
2022-09-03T13:57:58.353Z,5.05
2022-09-03T14:00:28.359Z,4.90
2022-09-03T14:02:55.649Z,4.56
2022-09-03T14:05:22.926Z,4.68
2022-09-03T14:07:50.237Z,5.08
2022-09-03T14:10:17.523Z,4.95
2022-09-03T14:12:44.820Z,5.01
2022-09-03T14:15:12.097Z,5.06
2022-09-03T14:17:39.393Z,5.14
2022-09-03T14:20:06.684Z,4.88
2022-09-03T14:22:33.968Z,4.82
2022-09-03T14:25:01.312Z,4.73
2022-09-03T14:27:28.619Z,4.94
2022-09-03T14:29:55.904Z,4.97
2022-09-03T14:32:23.194Z,5.33
2022-09-03T14:34:50.578Z,4.89
2022-09-03T14:37:17.876Z,4.22
2022-09-03T14:39:45.210Z,4.41
2022-09-03T14:42:13.538Z,4.28
2022-09-03T14:44:40.826Z,4.56
2022-09-03T14:47:08.104Z,4.38
2022-09-03T14:49:35.400Z,3.83
2022-09-03T14:52:02.685Z,3.54
2022-09-03T14:54:29.992Z,3.61
2022-09-03T14:56:57.261Z,3.78
2022-09-03T14:59:24.542Z,3.96
2022-09-03T15:01:51.869Z,4.03
2022-09-03T15:04:19.163Z,3.43
2022-09-03T15:06:46.431Z,3.65
2022-09-03T15:09:13.713Z,3.96
2022-09-03T15:11:41.001Z,3.97
2022-09-03T15:14:08.275Z,4.13
2022-09-03T15:16:36.490Z,3.87
2022-09-03T15:19:03.899Z,3.75
2022-09-03T15:21:31.189Z,4.17
2022-09-03T15:23:58.466Z,3.88
2022-09-03T15:26:25.758Z,4.22
2022-09-03T15:28:53.039Z,4.20
2022-09-03T15:31:20.337Z,3.87
2022-09-03T15:33:47.668Z,4.18
2022-09-03T15:36:14.936Z,4.20
2022-09-03T15:38:42.204Z,4.21
2022-09-03T15:41:09.530Z,3.97
2022-09-03T15:43:36.810Z,3.77
2022-09-03T15:46:04.105Z,3.73
2022-09-03T15:48:31.412Z,3.47
2022-09-03T15:50:58.802Z,3.58
2022-09-03T15:53:28.030Z,3.36
2022-09-03T15:55:55.297Z,3.48
2022-09-03T15:58:22.593Z,3.64
2022-09-03T16:00:49.893Z,3.39
2022-09-03T16:03:21.747Z,3.41
2022-09-03T16:05:51.169Z,3.62
2022-09-03T16:08:18.440Z,3.69
2022-09-03T16:10:45.726Z,3.34
2022-09-03T16:13:14.696Z,3.47
2022-09-03T16:15:42.179Z,3.83
2022-09-03T16:18:09.464Z,3.29
2022-09-03T16:20:36.773Z,3.36
2022-09-03T16:23:04.106Z,3.23
2022-09-03T16:25:31.388Z,3.50
2022-09-03T16:28:02.097Z,3.48
2022-09-03T16:30:34.151Z,4.12
2022-09-03T16:33:01.444Z,3.71
2022-09-03T16:35:28.723Z,3.55
2022-09-03T16:37:55.995Z,3.69
2022-09-03T16:40:26.844Z,3.96
2022-09-03T16:42:54.213Z,3.96
2022-09-03T16:45:21.484Z,3.96
2022-09-03T16:47:48.784Z,4.40
2022-09-03T16:50:16.047Z,4.62
2022-09-03T16:52:43.320Z,4.12
2022-09-03T16:55:10.604Z,4.23
2022-09-03T16:57:37.867Z,4.34
2022-09-03T17:00:05.177Z,5.86
2022-09-03T17:02:41.150Z,5.40
2022-09-03T17:05:09.407Z,5.61
2022-09-03T17:07:39.749Z,5.29
2022-09-03T17:10:07.017Z,5.54
2022-09-03T17:12:34.300Z,5.23
2022-09-03T17:15:01.599Z,5.45
2022-09-03T17:17:28.893Z,6.26
2022-09-03T17:19:56.169Z,6.55
2022-09-03T17:22:23.469Z,7.34
2022-09-03T17:24:50.741Z,7.18
2022-09-03T17:27:18.009Z,6.69
2022-09-03T17:29:47.288Z,6.75
2022-09-03T17:32:14.579Z,5.62
2022-09-03T17:34:41.866Z,4.89
2022-09-03T17:37:09.156Z,4.91
2022-09-03T17:39:36.508Z,5.18
2022-09-03T17:42:03.835Z,5.74
2022-09-03T17:44:31.106Z,4.81
2022-09-03T17:46:58.442Z,4.37
2022-09-03T17:49:25.752Z,4.60
2022-09-03T17:51:53.030Z,4.46
2022-09-03T17:54:20.420Z,4.95
2022-09-03T17:56:47.686Z,4.55
2022-09-03T17:59:14.960Z,4.31
2022-09-03T18:01:42.397Z,4.00
2022-09-03T18:04:09.748Z,3.89
2022-09-03T18:06:37.040Z,4.30
2022-09-03T18:09:04.334Z,4.13
2022-09-03T18:11:33.862Z,4.39
2022-09-03T18:14:01.398Z,4.19
2022-09-03T18:16:28.754Z,5.13
2022-09-03T18:18:56.079Z,4.61
2022-09-03T18:21:29.003Z,5.17
2022-09-03T18:23:58.683Z,5.07
2022-09-03T18:26:25.978Z,5.81
2022-09-03T18:28:53.261Z,5.46
2022-09-03T18:31:20.565Z,5.84
2022-09-03T18:33:47.947Z,6.67
2022-09-03T18:36:15.211Z,6.56
2022-09-03T18:38:42.476Z,6.99
2022-09-03T18:41:09.774Z,6.94
2022-09-03T18:43:37.035Z,6.50
2022-09-03T18:48:51.831Z,6.42
2022-09-03T18:51:19.139Z,6.98
2022-09-03T18:53:46.428Z,7.11
2022-09-03T18:56:13.711Z,6.76
2022-09-03T18:58:41.672Z,6.65
2022-09-03T19:01:08.955Z,6.97
2022-09-03T19:03:36.341Z,7.00
2022-09-03T19:06:03.613Z,6.72
2022-09-03T19:08:30.887Z,6.88
2022-09-03T19:10:58.181Z,7.40
2022-09-03T19:13:25.710Z,6.02
2022-09-03T19:15:53.292Z,5.90
2022-09-03T19:18:20.608Z,5.84
2022-09-03T19:20:47.906Z,6.18
2022-09-03T19:23:15.169Z,6.01
2022-09-03T19:25:42.433Z,6.09
2022-09-03T19:28:09.741Z,5.82
2022-09-03T19:30:40.100Z,5.50
2022-09-03T19:33:07.363Z,6.16
2022-09-03T19:35:39.110Z,6.11
2022-09-03T19:38:06.390Z,5.45
2022-09-03T19:40:33.658Z,6.09
2022-09-03T19:43:00.953Z,5.81
2022-09-03T19:45:28.333Z,5.89
2022-09-03T19:47:55.602Z,6.13
2022-09-03T19:50:24.034Z,5.09
2022-09-03T19:52:51.351Z,5.14
2022-09-03T19:55:18.629Z,6.65
2022-09-03T19:57:45.900Z,8.88
2022-09-03T20:00:13.224Z,7.61
2022-09-03T20:02:43.921Z,5.78
2022-09-03T20:05:11.251Z,5.62
2022-09-03T20:07:39.444Z,5.74
2022-09-03T20:10:06.705Z,6.02
2022-09-03T20:12:33.981Z,5.50
2022-09-03T20:15:01.271Z,5.40
2022-09-03T20:17:28.689Z,5.60
2022-09-03T20:19:55.952Z,5.35
2022-09-03T20:22:23.714Z,5.76
2022-09-03T20:24:51.773Z,5.28
2022-09-03T20:27:19.051Z,5.29
2022-09-03T20:29:46.342Z,4.88
2022-09-03T20:32:13.733Z,4.95
2022-09-03T20:34:41.018Z,4.72
2022-09-03T20:37:08.299Z,4.45
2022-09-03T20:39:35.618Z,4.26
2022-09-03T20:42:02.977Z,4.69
2022-09-03T20:44:32.256Z,4.85
2022-09-03T20:46:59.524Z,4.43
2022-09-03T20:49:28.812Z,4.47
2022-09-03T20:51:56.085Z,5.00
2022-09-03T20:54:23.361Z,5.26
2022-09-03T20:56:50.647Z,5.14
2022-09-03T20:59:17.922Z,4.53
2022-09-03T21:01:45.224Z,4.11
2022-09-03T21:04:12.573Z,4.36
2022-09-03T21:06:39.837Z,4.51
2022-09-03T21:09:07.116Z,4.92
2022-09-03T21:11:34.390Z,5.02
2022-09-03T21:14:01.656Z,4.59
2022-09-03T21:16:28.935Z,4.37
2022-09-03T21:18:56.235Z,4.38
2022-09-03T21:21:23.514Z,4.09
2022-09-03T21:23:50.780Z,4.55
2022-09-03T21:26:18.066Z,4.62
2022-09-03T21:28:45.336Z,4.95
2022-09-03T21:31:12.669Z,5.11
2022-09-03T21:33:39.970Z,5.09
2022-09-03T21:36:07.258Z,4.16
2022-09-03T21:38:34.549Z,4.43
2022-09-03T21:41:01.838Z,4.66
2022-09-03T21:43:29.137Z,5.46
2022-09-03T21:45:56.465Z,6.25
2022-09-03T21:48:23.808Z,5.91
2022-09-03T21:50:51.258Z,5.84
2022-09-03T21:53:18.537Z,5.44
2022-09-03T21:55:45.818Z,5.06
2022-09-03T21:58:13.117Z,4.52
2022-09-03T22:00:40.409Z,4.48
2022-09-03T22:03:07.711Z,4.59
2022-09-03T22:05:36.930Z,4.71
2022-09-03T22:08:04.211Z,4.65
2022-09-03T22:10:31.500Z,4.51
2022-09-03T22:12:58.773Z,4.63
2022-09-03T22:15:26.056Z,4.99
2022-09-03T22:17:53.344Z,4.79
2022-09-03T22:20:20.605Z,4.88
2022-09-03T22:22:49.899Z,4.67
2022-09-03T22:25:17.177Z,4.37
2022-09-03T22:27:44.474Z,4.41
2022-09-03T22:30:11.751Z,4.23
2022-09-03T22:32:40.197Z,4.35
2022-09-03T22:35:07.463Z,4.29
2022-09-03T22:37:34.844Z,4.13
2022-09-03T22:40:02.176Z,4.37
2022-09-03T22:42:29.463Z,4.13
2022-09-03T22:44:56.739Z,4.28
2022-09-03T22:47:24.031Z,4.09
2022-09-03T22:49:51.347Z,4.15
2022-09-03T22:52:18.620Z,4.24
2022-09-03T22:54:45.883Z,4.11
2022-09-03T22:57:13.173Z,4.34
2022-09-03T22:59:40.459Z,4.86
2022-09-03T23:05:18.099Z,4.14
2022-09-03T23:07:45.381Z,4.84
2022-09-03T23:10:12.763Z,4.89
2022-09-03T23:13:09.035Z,4.49
2022-09-03T23:15:56.625Z,3.84
2022-09-03T23:18:44.215Z,3.98
2022-09-03T23:21:31.807Z,4.85
2022-09-03T23:24:19.411Z,4.36
2022-09-03T23:27:08.400Z,4.63
2022-09-03T23:29:55.997Z,5.09
2022-09-03T23:32:43.597Z,5.15
2022-09-03T23:35:31.185Z,4.47
2022-09-03T23:38:18.786Z,4.56
2022-09-03T23:41:06.391Z,4.53
2022-09-03T23:43:53.955Z,4.48
2022-09-03T23:46:41.555Z,4.69
2022-09-03T23:49:29.142Z,4.38
2022-09-03T23:52:18.744Z,4.15
2022-09-03T23:55:06.300Z,3.86
2022-09-03T23:57:53.985Z,3.87
